createdAt,value
2023-02-13T00:00:42.725Z,2.38
2023-02-13T00:03:15.056Z,2.39
2023-02-13T00:05:47.029Z,2.24
2023-02-13T00:08:19.119Z,2.35
2023-02-13T00:10:51.104Z,2.56
2023-02-13T00:13:23.125Z,2.53
2023-02-13T00:15:59.654Z,2.62
2023-02-13T00:18:36.197Z,2.66
2023-02-13T00:21:11.470Z,2.62
2023-02-13T00:23:43.367Z,2.57
2023-02-13T00:26:17.068Z,2.55
2023-02-13T00:28:49.224Z,2.50
2023-02-13T00:31:22.757Z,2.49
2023-02-13T00:33:54.773Z,2.54
2023-02-13T00:36:26.859Z,2.52
2023-02-13T00:38:58.860Z,2.29
2023-02-13T00:41:31.011Z,2.57
2023-02-13T00:44:02.922Z,2.54
2023-02-13T00:46:34.958Z,2.54
2023-02-13T00:49:07.157Z,2.69
2023-02-13T00:51:39.086Z,2.69
2023-02-13T00:54:11.335Z,2.53
2023-02-13T00:56:43.264Z,2.56
2023-02-13T00:59:15.557Z,2.40
2023-02-13T01:01:47.531Z,2.50
2023-02-13T01:04:20.431Z,2.62
2023-02-13T01:06:52.402Z,2.57
2023-02-13T01:09:24.306Z,2.54
2023-02-13T01:11:56.272Z,2.63
2023-02-13T01:14:28.260Z,2.51
2023-02-13T01:17:00.279Z,2.40
2023-02-13T01:19:32.760Z,2.37
2023-02-13T01:22:04.730Z,2.43
2023-02-13T01:24:36.663Z,2.50
2023-02-13T01:27:08.615Z,2.55
2023-02-13T01:29:40.553Z,2.38
2023-02-13T01:32:13.048Z,2.45
2023-02-13T01:34:44.998Z,2.54
2023-02-13T01:37:17.130Z,2.33
2023-02-13T01:39:50.110Z,2.57
2023-02-13T01:42:26.800Z,2.60
2023-02-13T01:45:06.182Z,2.66
2023-02-13T01:47:54.440Z,2.66
2023-02-13T01:50:38.029Z,2.45
2023-02-13T01:53:12.915Z,2.69
2023-02-13T01:55:53.117Z,2.62
2023-02-13T01:58:28.324Z,2.64
2023-02-13T02:01:01.821Z,2.56
2023-02-13T02:03:48.303Z,2.74
2023-02-13T02:06:27.898Z,2.68
2023-02-13T02:09:05.081Z,2.68
2023-02-13T02:11:49.176Z,2.62
2023-02-13T02:14:24.235Z,2.72
2023-02-13T02:16:57.161Z,2.81
2023-02-13T02:19:41.482Z,2.76
2023-02-13T02:22:41.207Z,2.77
2023-02-13T02:25:53.073Z,2.71
2023-02-13T02:29:16.294Z,2.81
2023-02-13T02:32:19.241Z,2.72
2023-02-13T02:34:59.608Z,2.70
2023-02-13T02:37:57.329Z,2.71
2023-02-13T02:41:12.809Z,2.69
2023-02-13T02:44:10.765Z,2.60
2023-02-13T02:47:27.466Z,2.61
2023-02-13T02:50:12.615Z,2.72
2023-02-13T02:53:17.386Z,2.60
2023-02-13T02:56:05.459Z,2.67
2023-02-13T02:59:05.167Z,2.77
2023-02-13T03:01:57.153Z,2.60
2023-02-13T03:04:59.538Z,2.63
2023-02-13T03:07:32.178Z,2.60
2023-02-13T03:10:27.422Z,2.68
2023-02-13T03:13:23.266Z,2.66
2023-02-13T03:16:18.159Z,2.61
2023-02-13T03:19:16.540Z,2.79
2023-02-13T03:22:23.980Z,2.74
2023-02-13T03:24:59.130Z,2.87
2023-02-13T03:27:55.718Z,2.85
2023-02-13T03:31:38.344Z,2.80
2023-02-13T03:34:21.578Z,2.67
2023-02-13T03:37:30.390Z,2.81
2023-02-13T03:40:13.515Z,2.81
2023-02-13T03:43:01.734Z,2.92
2023-02-13T03:45:53.896Z,2.82
2023-02-13T03:48:54.508Z,2.89
2023-02-13T03:51:42.539Z,2.76
2023-02-13T03:55:09.062Z,2.98
2023-02-13T03:58:02.706Z,2.94
2023-02-13T04:00:45.057Z,2.89
2023-02-13T04:03:29.117Z,2.89
2023-02-13T04:06:11.921Z,2.95
2023-02-13T04:08:44.092Z,3.00
2023-02-13T04:11:30.908Z,2.95
2023-02-13T04:14:25.633Z,2.99
2023-02-13T04:17:06.593Z,2.98
2023-02-13T04:19:39.124Z,3.01
2023-02-13T04:22:12.713Z,3.23
2023-02-13T04:24:44.908Z,2.91
2023-02-13T04:27:17.796Z,3.23
2023-02-13T04:29:49.732Z,3.18
2023-02-13T04:32:21.698Z,3.11
2023-02-13T04:34:53.669Z,3.19
2023-02-13T04:37:25.635Z,3.22
2023-02-13T04:39:57.615Z,3.28
2023-02-13T04:42:29.632Z,3.15
2023-02-13T04:45:01.524Z,3.22
2023-02-13T04:47:33.585Z,3.23
2023-02-13T04:50:06.090Z,3.30
2023-02-13T04:52:38.102Z,3.40
2023-02-13T04:55:10.078Z,3.39
2023-02-13T04:57:42.062Z,3.39
2023-02-13T05:00:14.774Z,3.45
2023-02-13T05:02:46.868Z,3.43
2023-02-13T05:05:19.495Z,3.38
2023-02-13T05:07:51.484Z,3.45
2023-02-13T05:10:24.855Z,3.34
2023-02-13T05:12:56.708Z,3.52
2023-02-13T05:15:29.023Z,3.56
2023-02-13T05:18:00.959Z,3.48
2023-02-13T05:20:32.859Z,3.44
2023-02-13T05:23:22.921Z,3.39
2023-02-13T05:25:54.845Z,3.42
2023-02-13T05:28:45.657Z,3.49
2023-02-13T05:31:17.724Z,3.56
2023-02-13T05:33:49.829Z,3.40
2023-02-13T05:36:21.927Z,3.49
2023-02-13T05:38:53.882Z,3.65
2023-02-13T05:41:25.796Z,3.42
2023-02-13T05:43:57.808Z,3.62
2023-02-13T05:46:29.859Z,3.56
2023-02-13T05:49:03.905Z,3.56
2023-02-13T05:51:36.739Z,3.56
2023-02-13T05:54:09.035Z,3.64
2023-02-13T05:56:41.191Z,3.72
2023-02-13T05:59:13.564Z,3.69
2023-02-13T06:01:45.438Z,3.61
2023-02-13T06:04:17.467Z,3.67
2023-02-13T06:06:49.751Z,3.69
2023-02-13T06:09:22.140Z,3.76
2023-02-13T06:11:54.126Z,3.78
2023-02-13T06:14:26.056Z,3.59
2023-02-13T06:16:58.007Z,3.58
2023-02-13T06:19:30.085Z,3.76
2023-02-13T06:22:01.967Z,3.89
2023-02-13T06:24:33.932Z,3.78
2023-02-13T06:27:05.921Z,3.81
2023-02-13T06:29:37.849Z,3.66
2023-02-13T06:32:09.818Z,3.81
2023-02-13T06:34:41.759Z,3.76
2023-02-13T06:37:13.761Z,3.87
2023-02-13T06:39:45.744Z,3.89
2023-02-13T06:42:18.905Z,3.84
2023-02-13T06:44:50.915Z,3.87
2023-02-13T06:47:22.815Z,3.97
2023-02-13T06:49:54.712Z,3.83
2023-02-13T06:52:26.660Z,3.78
2023-02-13T06:54:58.697Z,3.96
2023-02-13T06:57:33.384Z,3.96
2023-02-13T07:00:06.340Z,3.92
2023-02-13T07:02:38.344Z,3.89
2023-02-13T07:05:11.859Z,3.86
2023-02-13T07:07:44.041Z,3.86
2023-02-13T07:10:16.370Z,3.88
2023-02-13T07:13:03.632Z,3.82
2023-02-13T07:15:38.378Z,3.89
2023-02-13T07:18:10.558Z,3.90
2023-02-13T07:20:43.223Z,3.73
2023-02-13T07:23:15.326Z,3.97
2023-02-13T07:25:47.264Z,4.01
2023-02-13T07:28:19.394Z,3.89
2023-02-13T07:30:51.364Z,4.14
2023-02-13T07:33:28.382Z,3.75
2023-02-13T07:36:01.207Z,3.80
2023-02-13T07:38:33.831Z,4.13
2023-02-13T07:41:06.563Z,4.01
2023-02-13T07:43:38.598Z,4.04
2023-02-13T07:46:10.867Z,3.57
2023-02-13T07:48:42.732Z,4.08
2023-02-13T07:51:14.854Z,3.82
2023-02-13T07:53:47.135Z,4.23
2023-02-13T07:56:19.455Z,4.38
2023-02-13T07:58:51.302Z,4.52
2023-02-13T08:01:23.359Z,4.37
2023-02-13T08:03:55.445Z,4.63
2023-02-13T08:06:27.602Z,4.52
2023-02-13T08:09:17.959Z,4.70
2023-02-13T08:11:56.207Z,4.85
2023-02-13T08:14:28.220Z,4.78
2023-02-13T08:17:01.443Z,4.99
2023-02-13T08:19:33.448Z,4.78
2023-02-13T08:22:05.417Z,4.66
2023-02-13T08:24:37.349Z,4.73
2023-02-13T08:27:13.591Z,4.67
2023-02-13T08:29:46.309Z,4.43
2023-02-13T08:32:18.668Z,4.56
2023-02-13T08:34:50.955Z,4.69
2023-02-13T08:37:23.187Z,4.83
2023-02-13T08:39:55.060Z,4.74
2023-02-13T08:42:27.434Z,4.72
2023-02-13T08:44:59.723Z,4.64
2023-02-13T08:47:31.864Z,4.92
2023-02-13T08:50:04.560Z,4.69
2023-02-13T08:52:36.508Z,4.89
2023-02-13T08:55:09.197Z,4.92
2023-02-13T08:57:41.373Z,5.13
2023-02-13T09:00:13.914Z,5.07
2023-02-13T09:02:45.768Z,5.29
2023-02-13T09:05:21.024Z,5.34
2023-02-13T09:07:52.955Z,5.52
2023-02-13T09:10:27.630Z,5.36
2023-02-13T09:12:59.737Z,5.26
2023-02-13T09:15:32.833Z,5.38
2023-02-13T09:18:05.153Z,5.51
2023-02-13T09:20:37.145Z,5.64
2023-02-13T09:23:09.297Z,5.73
2023-02-13T09:25:41.429Z,5.38
2023-02-13T09:28:13.371Z,5.73
2023-02-13T09:30:45.581Z,5.76
2023-02-13T09:33:17.643Z,5.80
2023-02-13T09:35:49.572Z,5.58
2023-02-13T09:38:21.563Z,5.54
2023-02-13T09:41:01.029Z,5.80
2023-02-13T09:43:55.433Z,5.94
2023-02-13T09:46:34.583Z,5.93
2023-02-13T09:49:17.204Z,5.67
2023-02-13T09:51:54.776Z,5.47
2023-02-13T09:54:29.223Z,5.57
2023-02-13T09:57:19.815Z,5.76
2023-02-13T09:59:57.462Z,5.83
2023-02-13T10:03:01.634Z,5.66
2023-02-13T10:06:08.924Z,5.31
2023-02-13T10:08:56.029Z,5.14
2023-02-13T10:11:45.071Z,5.09
2023-02-13T10:14:43.054Z,5.31
2023-02-13T10:17:24.518Z,5.11
2023-02-13T10:20:08.802Z,5.03
2023-02-13T10:22:51.681Z,5.06
2023-02-13T10:25:30.533Z,4.93
2023-02-13T10:28:13.073Z,5.10
2023-02-13T10:30:55.312Z,5.30
2023-02-13T10:33:48.065Z,5.25
2023-02-13T10:36:25.433Z,5.30
2023-02-13T10:39:02.243Z,5.19
2023-02-13T10:41:52.890Z,5.09
2023-02-13T10:44:35.831Z,5.02
2023-02-13T10:47:19.909Z,5.27
2023-02-13T10:49:54.626Z,5.28
2023-02-13T10:52:44.818Z,5.32
2023-02-13T10:56:17.374Z,5.32
2023-02-13T10:59:14.157Z,5.24
2023-02-13T11:02:01.430Z,5.25
2023-02-13T11:04:36.344Z,5.23
2023-02-13T11:07:15.729Z,5.21
2023-02-13T11:09:49.936Z,5.16
2023-02-13T11:12:26.807Z,5.11
2023-02-13T11:15:08.260Z,5.06
2023-02-13T11:17:44.461Z,5.05
2023-02-13T11:20:48.467Z,4.93
2023-02-13T11:23:32.612Z,5.04
2023-02-13T11:26:11.646Z,5.08
2023-02-13T11:29:06.411Z,5.02
2023-02-13T11:31:38.937Z,5.00
2023-02-13T11:34:28.409Z,5.09
2023-02-13T11:37:12.747Z,5.10
2023-02-13T11:39:47.960Z,5.07
2023-02-13T11:42:36.554Z,5.01
2023-02-13T11:45:23.396Z,4.94
2023-02-13T11:47:56.570Z,4.98
2023-02-13T11:50:36.648Z,4.81
2023-02-13T11:53:23.379Z,4.83
2023-02-13T11:56:05.772Z,5.03
2023-02-13T11:58:38.909Z,5.21
2023-02-13T12:01:22.410Z,5.26
2023-02-13T12:03:57.522Z,5.51
2023-02-13T12:06:29.701Z,5.08
2023-02-13T12:09:01.845Z,5.20
2023-02-13T12:11:55.262Z,5.24
2023-02-13T12:14:33.080Z,5.15
2023-02-13T12:17:25.541Z,4.98
2023-02-13T12:20:02.764Z,4.93
2023-02-13T12:22:53.526Z,5.07
2023-02-13T12:25:49.240Z,5.22
2023-02-13T12:28:35.306Z,5.19
2023-02-13T12:31:36.384Z,5.23
2023-02-13T12:34:11.230Z,5.41
2023-02-13T12:37:07.999Z,5.41
2023-02-13T12:39:51.574Z,5.57
2023-02-13T12:42:49.913Z,5.57
2023-02-13T12:45:21.776Z,5.30
2023-02-13T12:48:12.036Z,5.29
2023-02-13T12:50:57.441Z,5.31
2023-02-13T12:54:01.774Z,4.89
2023-02-13T12:57:00.176Z,5.28
2023-02-13T12:59:55.204Z,5.16
2023-02-13T13:02:27.201Z,5.31
2023-02-13T13:05:24.735Z,5.16
2023-02-13T13:08:35.044Z,5.37
2023-02-13T13:11:21.952Z,5.32
2023-02-13T13:14:20.428Z,5.20
2023-02-13T13:17:25.590Z,5.48
2023-02-13T13:20:15.692Z,5.34
2023-02-13T13:22:54.330Z,5.22
2023-02-13T13:25:42.063Z,5.44
2023-02-13T13:28:25.124Z,5.48
2023-02-13T13:30:59.248Z,5.74
2023-02-13T13:33:33.567Z,5.54
2023-02-13T13:36:15.325Z,5.56
2023-02-13T13:39:19.616Z,5.82
2023-02-13T13:42:20.690Z,5.84
2023-02-13T13:45:30.130Z,5.94
2023-02-13T13:48:38.562Z,6.00
2023-02-13T13:51:14.970Z,5.65
2023-02-13T13:54:02.038Z,5.75
2023-02-13T13:57:07.216Z,5.72
2023-02-13T13:59:39.089Z,5.73
2023-02-13T14:02:17.286Z,5.61
2023-02-13T14:05:17.652Z,5.49
2023-02-13T14:07:52.839Z,5.34
2023-02-13T14:10:30.410Z,5.39
2023-02-13T14:13:03.411Z,5.33
2023-02-13T14:15:42.743Z,5.49
2023-02-13T14:18:14.610Z,5.29
2023-02-13T14:20:52.069Z,5.24
2023-02-13T14:23:35.684Z,5.30
2023-02-13T14:26:16.616Z,5.26
2023-02-13T14:28:51.823Z,5.10
2023-02-13T14:31:31.634Z,5.00
2023-02-13T14:34:07.687Z,5.15
2023-02-13T14:36:48.430Z,5.20
2023-02-13T14:39:27.990Z,5.00
2023-02-13T14:42:03.218Z,5.05
2023-02-13T14:44:49.387Z,4.97
2023-02-13T14:47:33.886Z,5.02
2023-02-13T14:50:07.673Z,4.91
2023-02-13T14:52:43.402Z,4.96
2023-02-13T14:55:24.246Z,5.09
2023-02-13T14:58:12.843Z,5.23
2023-02-13T15:00:53.093Z,5.07
2023-02-13T15:03:31.067Z,5.00
2023-02-13T15:06:11.665Z,4.89
2023-02-13T15:08:49.668Z,5.08
2023-02-13T15:11:38.569Z,5.09
2023-02-13T15:14:21.061Z,4.89
2023-02-13T15:16:57.845Z,4.95
2023-02-13T15:19:30.391Z,4.96
2023-02-13T15:22:04.382Z,4.83
2023-02-13T15:24:46.226Z,4.87
2023-02-13T15:27:27.573Z,4.85
2023-02-13T15:30:04.615Z,4.91
2023-02-13T15:32:37.345Z,5.01
2023-02-13T15:35:38.868Z,4.78
2023-02-13T15:38:29.409Z,4.91
2023-02-13T15:41:11.602Z,4.83
2023-02-13T15:43:46.258Z,4.83
2023-02-13T15:46:24.749Z,4.86
2023-02-13T15:49:00.526Z,4.76
2023-02-13T15:51:34.383Z,4.58
2023-02-13T15:54:22.346Z,4.71
2023-02-13T15:56:57.926Z,4.63
2023-02-13T15:59:35.412Z,4.62
2023-02-13T16:02:15.404Z,4.69
2023-02-13T16:04:50.955Z,4.66
2023-02-13T16:07:23.147Z,4.70
2023-02-13T16:10:16.186Z,4.62
2023-02-13T16:12:49.284Z,4.53
2023-02-13T16:15:27.023Z,4.73
2023-02-13T16:18:00.061Z,4.64
2023-02-13T16:20:34.866Z,4.38
2023-02-13T16:23:20.205Z,4.74
2023-02-13T16:25:52.143Z,4.56
2023-02-13T16:28:27.530Z,4.55
2023-02-13T16:31:02.988Z,4.61
2023-02-13T16:33:44.761Z,4.75
2023-02-13T16:36:18.292Z,4.80
2023-02-13T16:38:50.752Z,4.68
2023-02-13T16:41:22.675Z,4.68
2023-02-13T16:44:02.705Z,4.64
2023-02-13T16:46:40.130Z,4.55
2023-02-13T16:49:12.094Z,4.59
2023-02-13T16:51:54.561Z,4.58
2023-02-13T16:54:38.392Z,4.04
2023-02-13T16:57:13.448Z,4.67
2023-02-13T16:59:48.555Z,4.62
2023-02-13T17:02:29.629Z,4.51
2023-02-13T17:05:07.573Z,4.62
2023-02-13T17:07:45.294Z,4.40
2023-02-13T17:10:19.976Z,4.65
2023-02-13T17:12:52.371Z,4.58
2023-02-13T17:15:26.328Z,4.57
2023-02-13T17:17:58.394Z,4.58
2023-02-13T17:20:33.331Z,4.66
2023-02-13T17:23:07.447Z,4.43
2023-02-13T17:25:39.598Z,4.53
2023-02-13T17:28:17.041Z,4.51
2023-02-13T17:30:54.448Z,4.53
2023-02-13T17:33:28.891Z,4.48
2023-02-13T17:36:00.860Z,4.56
2023-02-13T17:38:32.831Z,4.37
2023-02-13T17:41:06.448Z,4.58
2023-02-13T17:43:38.405Z,4.58
2023-02-13T17:46:10.507Z,4.49
2023-02-13T17:48:42.529Z,4.34
2023-02-13T17:51:14.951Z,4.50
2023-02-13T17:53:47.233Z,4.44
2023-02-13T17:56:19.240Z,4.44
2023-02-13T17:58:51.511Z,4.46
2023-02-13T18:01:23.498Z,4.34
2023-02-13T18:03:55.534Z,4.59
2023-02-13T18:06:27.536Z,4.36
2023-02-13T18:09:00.242Z,4.40
2023-02-13T18:11:32.300Z,4.47
2023-02-13T18:14:04.266Z,4.34
2023-02-13T18:16:36.283Z,4.38
2023-02-13T18:19:08.198Z,4.51
2023-02-13T18:21:41.417Z,4.42
2023-02-13T18:24:13.445Z,4.30
2023-02-13T18:26:45.411Z,4.50
2023-02-13T18:29:17.266Z,4.20
2023-02-13T18:31:51.930Z,4.35
2023-02-13T18:34:25.106Z,4.43
2023-02-13T18:36:57.235Z,4.42
2023-02-13T18:39:29.110Z,4.42
2023-02-13T18:42:01.316Z,4.53
2023-02-13T18:44:33.444Z,4.26
2023-02-13T18:47:05.673Z,4.48
2023-02-13T18:49:37.523Z,4.37
2023-02-13T18:52:09.714Z,4.53
2023-02-13T18:54:41.642Z,4.43
2023-02-13T18:57:14.938Z,4.42
2023-02-13T18:59:46.908Z,4.46
2023-02-13T19:02:18.866Z,4.51
2023-02-13T19:04:50.879Z,4.35
2023-02-13T19:07:22.888Z,4.30
2023-02-13T19:09:54.836Z,4.41
2023-02-13T19:12:26.932Z,4.50
2023-02-13T19:14:58.824Z,4.49
2023-02-13T19:17:30.810Z,4.14
2023-02-13T19:20:03.062Z,4.34
2023-02-13T19:22:34.971Z,4.05
2023-02-13T19:25:07.058Z,4.23
2023-02-13T19:27:39.046Z,4.21
2023-02-13T19:30:12.845Z,4.38
2023-02-13T19:32:44.890Z,4.24
2023-02-13T19:35:16.917Z,4.19
2023-02-13T19:37:48.859Z,4.26
2023-02-13T19:40:21.050Z,3.97
2023-02-13T19:42:52.970Z,4.23
2023-02-13T19:45:25.073Z,4.33
2023-02-13T19:47:57.228Z,4.04
2023-02-13T19:50:29.180Z,4.01
2023-02-13T19:53:01.049Z,4.08
2023-02-13T19:55:33.102Z,4.22
2023-02-13T19:58:05.482Z,4.20
2023-02-13T20:00:37.596Z,4.07
2023-02-13T20:03:09.590Z,4.04
2023-02-13T20:05:41.984Z,4.10
2023-02-13T20:08:13.996Z,4.09
2023-02-13T20:10:46.152Z,4.15
2023-02-13T20:13:18.102Z,4.18
2023-02-13T20:15:50.207Z,4.19
2023-02-13T20:18:22.285Z,4.16
2023-02-13T20:20:54.753Z,4.19
2023-02-13T20:23:26.806Z,4.21
2023-02-13T20:26:07.198Z,4.16
2023-02-13T20:28:39.116Z,4.11
2023-02-13T20:31:14.379Z,4.13
2023-02-13T20:33:49.437Z,4.09
2023-02-13T20:36:26.072Z,4.12
2023-02-13T20:39:00.590Z,4.09
2023-02-13T20:41:34.903Z,4.13
2023-02-13T20:44:11.566Z,3.94
2023-02-13T20:46:43.610Z,3.98
2023-02-13T20:49:20.588Z,4.03
2023-02-13T20:51:53.024Z,4.04
2023-02-13T20:54:24.923Z,3.97
2023-02-13T20:56:56.827Z,3.94
2023-02-13T20:59:28.795Z,3.66
2023-02-13T21:02:00.854Z,3.97
2023-02-13T21:04:34.492Z,3.97
2023-02-13T21:07:09.500Z,3.89
2023-02-13T21:09:41.596Z,3.90
2023-02-13T21:12:13.521Z,3.82
2023-02-13T21:14:45.588Z,3.78
2023-02-13T21:17:17.875Z,3.82
2023-02-13T21:19:49.850Z,3.93
2023-02-13T21:22:22.072Z,3.77
2023-02-13T21:24:54.087Z,3.94
2023-02-13T21:27:26.064Z,3.74
2023-02-13T21:29:58.271Z,3.82
2023-02-13T21:32:30.255Z,3.81
2023-02-13T21:35:02.185Z,3.83
2023-02-13T21:37:34.504Z,3.83
2023-02-13T21:40:07.445Z,3.84
2023-02-13T21:42:39.362Z,3.74
2023-02-13T21:45:12.163Z,3.69
2023-02-13T21:47:45.859Z,3.80
2023-02-13T21:50:17.898Z,3.80
2023-02-13T21:52:49.833Z,3.85
2023-02-13T21:55:22.330Z,3.77
2023-02-13T21:57:54.199Z,3.47
2023-02-13T22:00:26.121Z,3.58
2023-02-13T22:02:58.025Z,3.80
2023-02-13T22:05:30.271Z,3.73
2023-02-13T22:08:11.164Z,3.66
2023-02-13T22:10:42.901Z,3.75
2023-02-13T22:13:14.865Z,3.80
2023-02-13T22:15:46.852Z,3.60
2023-02-13T22:18:18.715Z,3.59
2023-02-13T22:20:51.517Z,3.81
2023-02-13T22:23:23.441Z,3.87
2023-02-13T22:25:55.410Z,3.80
2023-02-13T22:28:27.575Z,3.65
2023-02-13T22:31:00.491Z,3.73
2023-02-13T22:33:34.380Z,3.71
2023-02-13T22:36:07.112Z,3.76
2023-02-13T22:38:40.320Z,3.78
2023-02-13T22:41:14.817Z,3.72
2023-02-13T22:43:47.190Z,3.75
2023-02-13T22:46:30.817Z,3.73
2023-02-13T22:49:03.253Z,3.68
2023-02-13T22:51:36.404Z,3.69
2023-02-13T22:54:08.483Z,3.37
2023-02-13T22:56:40.584Z,3.56
2023-02-13T22:59:12.598Z,3.69
2023-02-13T23:01:44.578Z,3.38
2023-02-13T23:04:16.885Z,3.42
2023-02-13T23:06:48.975Z,3.68
2023-02-13T23:09:20.914Z,3.51
2023-02-13T23:12:11.483Z,3.68
2023-02-13T23:14:43.449Z,3.75
2023-02-13T23:17:33.800Z,3.67
2023-02-13T23:20:06.507Z,3.61
2023-02-13T23:22:38.908Z,3.78
2023-02-13T23:25:11.227Z,3.54
2023-02-13T23:27:43.902Z,3.76
2023-02-13T23:30:17.808Z,3.75
2023-02-13T23:32:49.832Z,3.65
2023-02-13T23:35:22.070Z,3.62
2023-02-13T23:37:54.889Z,3.55
2023-02-13T23:40:26.889Z,3.61
2023-02-13T23:42:58.892Z,3.65
2023-02-13T23:45:30.836Z,3.76
2023-02-13T23:48:02.772Z,3.68
2023-02-13T23:50:34.768Z,3.83
2023-02-13T23:53:06.935Z,3.63
2023-02-13T23:55:38.885Z,3.84
2023-02-13T23:58:10.879Z,3.62
